createdAt,value
2023-03-11T00:00:34.303Z,9.719107
2023-03-11T00:01:33.297Z,9.719275
2023-03-11T00:02:33.280Z,9.719191
2023-03-11T00:03:33.288Z,9.719301
2023-03-11T00:04:33.267Z,9.719283
2023-03-11T00:05:33.289Z,9.719146
2023-03-11T00:06:33.263Z,9.719090
2023-03-11T00:07:33.222Z,9.719227
2023-03-11T00:08:33.231Z,9.719221
2023-03-11T00:09:33.203Z,9.719315
2023-03-11T00:10:33.193Z,9.719336
2023-03-11T00:11:33.200Z,9.719065
2023-03-11T00:12:33.182Z,9.719265
2023-03-11T00:13:33.197Z,9.718851
2023-03-11T00:14:33.158Z,9.718955
2023-03-11T00:15:33.180Z,9.719069
2023-03-11T00:16:33.185Z,9.719265
2023-03-11T00:17:33.141Z,9.719196
2023-03-11T00:18:33.144Z,9.719083
2023-03-11T00:19:33.110Z,9.719056
2023-03-11T00:20:33.100Z,9.719157
2023-03-11T00:21:33.085Z,9.719132
2023-03-11T00:22:33.110Z,9.719021
2023-03-11T00:23:33.079Z,9.719000
2023-03-11T00:24:33.085Z,9.719307
2023-03-11T00:25:33.047Z,9.719163
2023-03-11T00:26:33.040Z,9.719278
2023-03-11T00:27:33.066Z,9.719273
2023-03-11T00:28:34.376Z,9.719302
2023-03-11T00:29:34.021Z,9.719350
2023-03-11T00:30:33.040Z,9.719304
2023-03-11T00:31:33.003Z,9.719300
2023-03-11T00:32:33.062Z,9.719230
2023-03-11T00:33:32.991Z,9.719287
2023-03-11T00:34:32.968Z,9.719236
2023-03-11T00:35:33.008Z,9.719169
2023-03-11T00:36:32.943Z,9.719207
2023-03-11T00:37:32.936Z,9.719236
2023-03-11T00:38:32.990Z,9.719221
2023-03-11T00:39:32.921Z,9.719178
2023-03-11T00:40:32.908Z,9.719267
2023-03-11T00:41:32.894Z,9.719296
2023-03-11T00:42:32.887Z,9.719261
2023-03-11T00:43:32.893Z,9.719201
2023-03-11T00:44:32.868Z,9.719234
2023-03-11T00:45:32.850Z,9.719229
2023-03-11T00:46:32.882Z,9.719204
2023-03-11T00:47:32.827Z,9.719250
2023-03-11T00:48:32.843Z,9.719234
2023-03-11T00:49:32.809Z,9.719232
2023-03-11T00:50:32.819Z,9.719239
2023-03-11T00:51:34.262Z,9.719287
2023-03-11T00:52:33.795Z,9.719301
2023-03-11T00:53:32.780Z,9.719260
2023-03-11T00:54:32.765Z,9.719302
2023-03-11T00:55:32.789Z,9.719282
2023-03-11T00:56:32.746Z,9.719229
2023-03-11T00:57:32.734Z,9.719223
2023-03-11T00:58:32.715Z,9.719188
2023-03-11T00:59:32.708Z,9.719307
2023-03-11T01:00:32.733Z,9.719358
2023-03-11T01:01:32.752Z,9.719340
2023-03-11T01:02:32.690Z,9.719375
2023-03-11T01:03:32.694Z,9.719333
2023-03-11T01:04:32.731Z,9.719349
2023-03-11T01:05:32.652Z,9.719426
2023-03-11T01:06:44.457Z,9.719297
2023-03-11T01:07:34.641Z,9.719371
2023-03-11T01:08:32.629Z,9.719308
2023-03-11T01:09:32.604Z,9.719325
2023-03-11T01:10:32.626Z,9.719211
2023-03-11T01:11:32.600Z,9.719219
2023-03-11T01:12:32.609Z,9.719232
2023-03-11T01:13:32.594Z,9.719220
2023-03-11T01:14:32.573Z,9.719157
2023-03-11T01:15:32.629Z,9.719334
2023-03-11T01:16:32.524Z,9.719319
2023-03-11T01:17:32.534Z,9.719233
2023-03-11T01:18:32.529Z,9.719344
2023-03-11T01:19:32.518Z,9.719254
2023-03-11T01:20:32.521Z,9.718946
2023-03-11T01:21:32.497Z,9.719373
2023-03-11T01:22:32.477Z,9.719036
2023-03-11T01:23:32.498Z,9.718945
2023-03-11T01:24:32.486Z,9.718977
2023-03-11T01:25:32.446Z,9.719184
2023-03-11T01:26:32.451Z,9.719004
2023-03-11T01:27:32.469Z,9.719188
2023-03-11T01:28:32.425Z,9.719357
2023-03-11T01:29:32.419Z,9.719233
2023-03-11T01:30:32.427Z,9.719364
2023-03-11T01:31:32.393Z,9.719223
2023-03-11T01:32:32.478Z,9.719322
2023-03-11T01:34:04.279Z,9.719352
2023-03-11T01:34:32.363Z,9.719236
2023-03-11T01:35:32.425Z,9.719339
2023-03-11T01:36:32.390Z,9.719266
2023-03-11T01:37:32.335Z,9.719172
2023-03-11T01:38:32.333Z,9.719201
2023-03-11T01:39:32.324Z,9.719161
2023-03-11T01:40:32.318Z,9.719128
2023-03-11T01:41:32.337Z,9.719184
2023-03-11T01:42:32.313Z,9.719275
2023-03-11T01:43:32.283Z,9.719327
2023-03-11T01:44:32.269Z,9.719268
2023-03-11T01:45:32.253Z,9.719291
2023-03-11T01:46:32.315Z,9.719211
2023-03-11T01:47:32.227Z,9.719157
2023-03-11T01:48:32.233Z,9.719267
2023-03-11T01:49:32.242Z,9.719286
2023-03-11T01:50:32.210Z,9.719328
2023-03-11T01:51:32.192Z,9.719249
2023-03-11T01:52:32.205Z,9.719168
2023-03-11T01:53:32.203Z,9.719128
2023-03-11T01:54:32.174Z,9.719147
2023-03-11T01:55:32.161Z,9.719134
2023-03-11T01:56:32.151Z,9.719166
2023-03-11T01:57:32.139Z,9.719192
2023-03-11T01:58:32.146Z,9.719168
2023-03-11T01:59:32.131Z,9.719252
2023-03-11T02:00:32.116Z,9.719231
2023-03-11T02:01:32.146Z,9.719199
2023-03-11T02:02:32.109Z,9.719171
2023-03-11T02:03:32.110Z,9.719213
2023-03-11T02:04:32.087Z,9.719242
2023-03-11T02:05:32.074Z,9.719290
2023-03-11T02:06:32.043Z,9.719348
2023-03-11T02:07:32.040Z,9.719378
2023-03-11T02:08:32.031Z,9.719341
2023-03-11T02:09:32.051Z,9.719303
2023-03-11T02:10:32.006Z,9.719321
2023-03-11T02:11:31.998Z,9.719378
2023-03-11T02:12:32.002Z,9.719342
2023-03-11T02:13:31.987Z,9.719293
2023-03-11T02:14:32.006Z,9.719245
2023-03-11T02:15:31.964Z,9.719237
2023-03-11T02:16:32.010Z,9.719133
2023-03-11T02:17:31.938Z,9.718958
2023-03-11T02:18:31.949Z,9.719204
2023-03-11T02:19:31.927Z,9.719296
2023-03-11T02:20:31.920Z,9.719247
2023-03-11T02:21:31.933Z,9.719016
2023-03-11T02:22:31.900Z,9.718891
2023-03-11T02:23:31.900Z,9.719049
2023-03-11T02:24:31.876Z,9.719046
2023-03-11T02:25:31.869Z,9.719206
2023-03-11T02:26:31.865Z,9.719088
2023-03-11T02:27:31.863Z,9.719101
2023-03-11T02:28:31.855Z,9.719379
2023-03-11T02:29:31.835Z,9.719443
2023-03-11T02:30:31.844Z,9.719328
2023-03-11T02:31:31.891Z,9.719170
2023-03-11T02:32:31.849Z,9.718971
2023-03-11T02:33:31.796Z,9.719081
2023-03-11T02:34:31.804Z,9.719186
2023-03-11T02:35:31.809Z,9.719209
2023-03-11T02:36:31.780Z,9.719176
2023-03-11T02:37:31.761Z,9.719108
2023-03-11T02:38:31.752Z,9.719134
2023-03-11T02:39:31.781Z,9.719103
2023-03-11T02:40:31.739Z,9.719218
2023-03-11T02:41:31.720Z,9.719104
2023-03-11T02:42:31.702Z,9.719107
2023-03-11T02:43:31.701Z,9.719070
2023-03-11T02:44:31.685Z,9.719187
2023-03-11T02:45:31.695Z,9.719206
2023-03-11T02:46:31.756Z,9.719318
2023-03-11T02:47:31.657Z,9.719248
2023-03-11T02:48:31.651Z,9.719304
2023-03-11T02:49:31.672Z,9.719239
2023-03-11T02:50:31.639Z,9.719170
2023-03-11T02:51:31.604Z,9.719213
2023-03-11T02:52:31.594Z,9.719225
2023-03-11T02:53:31.621Z,9.719228
2023-03-11T02:54:31.580Z,9.719247
2023-03-11T02:55:31.586Z,9.719319
2023-03-11T02:56:31.547Z,9.719334
2023-03-11T02:57:31.561Z,9.719424
2023-03-11T02:58:31.562Z,9.719397
2023-03-11T02:59:31.548Z,9.719448
2023-03-11T03:00:31.589Z,9.719453
2023-03-11T03:01:31.504Z,9.719639
2023-03-11T03:02:31.502Z,9.719857
2023-03-11T03:03:31.532Z,9.719857
2023-03-11T03:04:31.576Z,9.719857
2023-03-11T03:05:31.472Z,9.719857
2023-03-11T03:06:31.466Z,9.719857
2023-03-11T03:07:31.471Z,9.719857
2023-03-11T03:08:31.460Z,9.719857
2023-03-11T03:09:31.432Z,9.719857
2023-03-11T03:10:31.420Z,9.719857
2023-03-11T03:11:31.436Z,9.719857
2023-03-11T03:12:31.399Z,9.719857
2023-03-11T03:13:31.380Z,9.719176
2023-03-11T03:14:32.381Z,9.718958
2023-03-11T03:15:31.374Z,9.718661
2023-03-11T03:16:31.424Z,9.718833
2023-03-11T03:17:31.385Z,9.718659
2023-03-11T03:18:31.346Z,9.719223
2023-03-11T03:19:31.359Z,9.719296
2023-03-11T03:20:31.319Z,9.719164
2023-03-11T03:21:31.358Z,9.718954
2023-03-11T03:22:31.300Z,9.719322
2023-03-11T03:23:31.333Z,9.719322
2023-03-11T03:24:31.297Z,9.719322
2023-03-11T03:25:31.296Z,9.719322
2023-03-11T03:26:31.289Z,9.719322
2023-03-11T03:27:31.257Z,9.719322
2023-03-11T03:28:31.258Z,9.719117
2023-03-11T03:29:31.244Z,9.718978
2023-03-11T03:30:31.236Z,9.719056
2023-03-11T03:31:31.324Z,9.719586
2023-03-11T03:32:31.295Z,9.719277
2023-03-11T03:33:31.233Z,9.719210
2023-03-11T03:34:31.187Z,9.719159
2023-03-11T03:35:31.247Z,9.719194
2023-03-11T03:36:31.182Z,9.718854
2023-03-11T03:37:31.162Z,9.718944
2023-03-11T03:38:31.142Z,9.718795
2023-03-11T03:39:31.134Z,9.719113
2023-03-11T03:40:31.123Z,9.719139
2023-03-11T03:41:31.112Z,9.719195
2023-03-11T03:42:31.118Z,9.719332
2023-03-11T03:43:31.095Z,9.719505
2023-03-11T03:44:31.093Z,9.719565
2023-03-11T03:45:31.071Z,9.719329
2023-03-11T03:46:31.060Z,9.719364
2023-03-11T03:47:31.073Z,9.719443
2023-03-11T03:48:31.059Z,9.719293
2023-03-11T03:49:31.055Z,9.719443
2023-03-11T03:50:31.024Z,9.719259
2023-03-11T03:51:31.012Z,9.719297
2023-03-11T03:52:31.008Z,9.719368
2023-03-11T03:53:30.999Z,9.719283
2023-03-11T03:54:31.012Z,9.719168
2023-03-11T03:55:30.975Z,9.719283
2023-03-11T03:56:30.967Z,9.719282
2023-03-11T03:57:30.959Z,9.719131
2023-03-11T03:58:30.933Z,9.719068
2023-03-11T03:59:30.943Z,9.719231
2023-03-11T04:00:30.961Z,9.719481
2023-03-11T04:01:30.912Z,9.719733
2023-03-11T04:02:30.997Z,9.719754
2023-03-11T04:03:30.989Z,9.719492
2023-03-11T04:04:30.902Z,9.719373
2023-03-11T04:05:30.912Z,9.719585
2023-03-11T04:06:30.883Z,9.719568
2023-03-11T04:07:30.888Z,9.719578
2023-03-11T04:08:30.864Z,9.719485
2023-03-11T04:09:30.830Z,9.719391
2023-03-11T04:10:30.837Z,9.719332
2023-03-11T04:11:30.820Z,9.719229
2023-03-11T04:12:30.857Z,9.719213
2023-03-11T04:13:30.800Z,9.719243
2023-03-11T04:14:30.811Z,9.719398
2023-03-11T04:15:30.785Z,9.719346
2023-03-11T04:16:30.858Z,9.719298
2023-03-11T04:17:30.800Z,9.719260
2023-03-11T04:18:30.776Z,9.719237
2023-03-11T04:19:31.754Z,9.719268
2023-03-11T04:20:30.736Z,9.719312
2023-03-11T04:21:31.725Z,9.719252
2023-03-11T04:22:30.722Z,9.719206
2023-03-11T04:23:30.726Z,9.719213
2023-03-11T04:24:30.711Z,9.719241
2023-03-11T04:25:30.687Z,9.719235
2023-03-11T04:26:30.712Z,9.719301
2023-03-11T04:27:30.659Z,9.719354
2023-03-11T04:28:30.664Z,9.719409
2023-03-11T04:29:30.647Z,9.719440
2023-03-11T04:30:30.624Z,9.719376
2023-03-11T04:31:30.680Z,9.719321
2023-03-11T04:32:30.730Z,9.719319
2023-03-11T04:33:30.612Z,9.719346
2023-03-11T04:34:30.595Z,9.719261
2023-03-11T04:35:30.600Z,9.719330
2023-03-11T04:36:30.595Z,9.719303
2023-03-11T04:37:30.608Z,9.719245
2023-03-11T04:38:30.556Z,9.719351
2023-03-11T04:39:30.553Z,9.719384
2023-03-11T04:40:30.554Z,9.719289
2023-03-11T04:41:30.528Z,9.719309
2023-03-11T04:42:30.542Z,9.719238
2023-03-11T04:43:30.512Z,9.719198
2023-03-11T04:44:30.497Z,9.719279
2023-03-11T04:45:30.501Z,9.719239
2023-03-11T04:46:30.542Z,9.719219
2023-03-11T04:47:30.486Z,9.719274
2023-03-11T04:48:30.463Z,9.719257
2023-03-11T04:49:30.440Z,9.719365
2023-03-11T04:50:30.447Z,9.719044
2023-03-11T04:51:30.461Z,9.718143
2023-03-11T04:52:30.421Z,9.719258
2023-03-11T04:53:30.403Z,9.719763
2023-03-11T04:54:30.395Z,9.719768
2023-03-11T04:55:30.385Z,9.719471
2023-03-11T04:56:30.391Z,9.719247
2023-03-11T04:57:30.394Z,9.719391
2023-03-11T04:58:31.352Z,9.719314
2023-03-11T04:59:30.344Z,9.719212
2023-03-11T05:00:30.330Z,9.719475
2023-03-11T05:01:30.393Z,9.719385
2023-03-11T05:02:30.333Z,9.719393
2023-03-11T05:03:30.418Z,9.719172
2023-03-11T05:04:30.313Z,9.719125
2023-03-11T05:05:30.284Z,9.719267
2023-03-11T05:06:30.288Z,9.719142
2023-03-11T05:07:30.296Z,9.719090
2023-03-11T05:08:30.254Z,9.719085
2023-03-11T05:09:30.252Z,9.719091
2023-03-11T05:10:31.885Z,9.719078
2023-03-11T05:11:31.248Z,9.719163
2023-03-11T05:12:30.218Z,9.719206
2023-03-11T05:13:30.213Z,9.719211
2023-03-11T05:14:30.229Z,9.719191
2023-03-11T05:15:30.190Z,9.719177
2023-03-11T05:16:30.195Z,9.719143
2023-03-11T05:17:30.172Z,9.719165
2023-03-11T05:18:30.166Z,9.719162
2023-03-11T05:19:30.166Z,9.719146
2023-03-11T05:20:30.154Z,9.719217
2023-03-11T05:21:30.140Z,9.719197
2023-03-11T05:22:31.148Z,9.719139
2023-03-11T05:23:30.119Z,9.719194
2023-03-11T05:24:30.099Z,9.719140
2023-03-11T05:25:30.092Z,9.719213
2023-03-11T05:26:30.098Z,9.719316
2023-03-11T05:27:30.084Z,9.719234
2023-03-11T05:28:30.090Z,9.719252
2023-03-11T05:29:30.069Z,9.719249
2023-03-11T05:30:30.041Z,9.719222
2023-03-11T05:31:30.091Z,9.719261
2023-03-11T05:32:30.081Z,9.719238
2023-03-11T05:33:30.036Z,9.719237
2023-03-11T05:34:30.016Z,9.719299
2023-03-11T05:35:30.028Z,9.719216
2023-03-11T05:36:29.992Z,9.719171
2023-03-11T05:37:29.979Z,9.719169
2023-03-11T05:38:29.982Z,9.719102
2023-03-11T05:39:29.968Z,9.719070
2023-03-11T05:40:29.944Z,9.719276
2023-03-11T05:41:29.956Z,9.719265
2023-03-11T05:42:29.981Z,9.719185
2023-03-11T05:43:29.920Z,9.719110
2023-03-11T05:44:29.911Z,9.719234
2023-03-11T05:45:30.891Z,9.719166
2023-03-11T05:46:29.934Z,9.719153
2023-03-11T05:47:29.938Z,9.719011
2023-03-11T05:48:29.864Z,9.719016
2023-03-11T05:49:29.864Z,9.718995
2023-03-11T05:50:29.856Z,9.719091
2023-03-11T05:51:29.845Z,9.719117
2023-03-11T05:52:29.842Z,9.719233
2023-03-11T05:53:29.864Z,9.719435
2023-03-11T05:54:29.814Z,9.719392
2023-03-11T05:55:29.807Z,9.719261
2023-03-11T05:56:29.807Z,9.719155
2023-03-11T05:57:29.773Z,9.719269
2023-03-11T05:58:30.804Z,9.719181
2023-03-11T05:59:29.769Z,9.719236
2023-03-11T06:00:29.781Z,9.719301
2023-03-11T06:01:29.753Z,9.719317
2023-03-11T06:02:29.734Z,9.719173
2023-03-11T06:03:29.739Z,9.719171
2023-03-11T06:04:29.817Z,9.719209
2023-03-11T06:05:29.812Z,9.719132
2023-03-11T06:06:29.698Z,9.719125
2023-03-11T06:07:29.684Z,9.719178
2023-03-11T06:08:29.671Z,9.719147
2023-03-11T06:09:29.690Z,9.719247
2023-03-11T06:10:29.657Z,9.719265
2023-03-11T06:11:29.662Z,9.719480
2023-03-11T06:12:29.694Z,9.719414
2023-03-11T06:13:29.623Z,9.719411
2023-03-11T06:14:29.642Z,9.719234
2023-03-11T06:15:29.615Z,9.719139
2023-03-11T06:16:29.648Z,9.719005
2023-03-11T06:17:30.567Z,9.718941
2023-03-11T06:18:29.567Z,9.719005
2023-03-11T06:19:29.572Z,9.719064
2023-03-11T06:20:29.580Z,9.719132
2023-03-11T06:21:29.552Z,9.719401
2023-03-11T06:22:29.553Z,9.719346
2023-03-11T06:23:29.527Z,9.719228
2023-03-11T06:24:29.528Z,9.719257
2023-03-11T06:25:29.512Z,9.719276
2023-03-11T06:26:29.503Z,9.719202
2023-03-11T06:27:29.491Z,9.719255
2023-03-11T06:28:29.480Z,9.719145
2023-03-11T06:29:29.493Z,9.719078
2023-03-11T06:30:29.459Z,9.719303
2023-03-11T06:31:29.487Z,9.719661
2023-03-11T06:32:29.480Z,9.719490
2023-03-11T06:33:29.460Z,9.719337
2023-03-11T06:34:29.420Z,9.719435
2023-03-11T06:35:29.449Z,9.719118
2023-03-11T06:36:29.417Z,9.719007
2023-03-11T06:37:29.389Z,9.718798
2023-03-11T06:38:29.387Z,9.718899
2023-03-11T06:39:29.398Z,9.719196
2023-03-11T06:40:29.360Z,9.719269
2023-03-11T06:41:29.346Z,9.719092
2023-03-11T06:42:29.341Z,9.719127
2023-03-11T06:43:29.347Z,9.719118
2023-03-11T06:44:29.356Z,9.719162
2023-03-11T06:45:29.348Z,9.719191
2023-03-11T06:46:29.314Z,9.719184
2023-03-11T06:47:29.298Z,9.719127
2023-03-11T06:48:29.290Z,9.719074
2023-03-11T06:49:29.296Z,9.719089
2023-03-11T06:50:29.264Z,9.719208
2023-03-11T06:51:29.264Z,9.719199
2023-03-11T06:52:29.261Z,9.719212
2023-03-11T06:53:29.246Z,9.719220
2023-03-11T06:54:29.254Z,9.719231
2023-03-11T06:55:29.213Z,9.719147
2023-03-11T06:56:29.201Z,9.719372
2023-03-11T06:57:29.213Z,9.719143
2023-03-11T06:58:29.186Z,9.719146
2023-03-11T06:59:29.206Z,9.719194
2023-03-11T07:00:29.167Z,9.719071
2023-03-11T07:01:29.221Z,9.719093
2023-03-11T07:02:29.144Z,9.719132
2023-03-11T07:03:29.136Z,9.718907
2023-03-11T07:04:29.126Z,9.719204
2023-03-11T07:05:30.126Z,9.719087
2023-03-11T07:06:29.144Z,9.718883
2023-03-11T07:07:29.115Z,9.718909
2023-03-11T07:08:29.098Z,9.719056
2023-03-11T07:09:29.088Z,9.719028
2023-03-11T07:10:29.079Z,9.719110
2023-03-11T07:11:29.094Z,9.718980
2023-03-11T07:12:29.064Z,9.718956
2023-03-11T07:13:29.041Z,9.719079
2023-03-11T07:14:29.037Z,9.719043
2023-03-11T07:15:29.047Z,9.719225
2023-03-11T07:16:29.046Z,9.719025
2023-03-11T07:17:29.045Z,9.718989
2023-03-11T07:18:28.998Z,9.718863
2023-03-11T07:19:28.997Z,9.718871
2023-03-11T07:20:28.998Z,9.718966
2023-03-11T07:21:28.962Z,9.719000
2023-03-11T07:22:28.954Z,9.718989
2023-03-11T07:23:28.950Z,9.718857
2023-03-11T07:24:28.947Z,9.718963
2023-03-11T07:25:28.932Z,9.718884
2023-03-11T07:26:28.943Z,9.718866
2023-03-11T07:27:28.934Z,9.719310
2023-03-11T07:28:28.897Z,9.719006
2023-03-11T07:29:28.893Z,9.719054
2023-03-11T07:30:28.889Z,9.718989
2023-03-11T07:31:28.920Z,9.718497
2023-03-11T07:32:28.943Z,9.718955
2023-03-11T07:33:28.854Z,9.719278
2023-03-11T07:35:00.740Z,9.719166
2023-03-11T07:35:28.825Z,9.719124
2023-03-11T07:36:28.822Z,9.719082
2023-03-11T07:37:28.827Z,9.719144
2023-03-11T07:38:28.801Z,9.719426
2023-03-11T07:39:28.792Z,9.719192
2023-03-11T07:40:28.800Z,9.719094
2023-03-11T07:41:28.758Z,9.719033
2023-03-11T07:42:28.772Z,9.719239
2023-03-11T07:43:28.753Z,9.718979
2023-03-11T07:44:28.750Z,9.719066
2023-03-11T07:45:28.770Z,9.719128
2023-03-11T07:46:28.915Z,9.719211
2023-03-11T07:47:28.710Z,9.719219
2023-03-11T07:48:28.706Z,9.719105
2023-03-11T07:49:28.685Z,9.718623
2023-03-11T07:50:28.696Z,9.718617
2023-03-11T07:51:28.684Z,9.719135
2023-03-11T07:52:28.668Z,9.719154
2023-03-11T07:53:28.656Z,9.719166
2023-03-11T07:54:28.660Z,9.719233
2023-03-11T07:55:28.665Z,9.719231
2023-03-11T07:56:28.630Z,9.719096
2023-03-11T07:57:28.619Z,9.719149
2023-03-11T07:58:28.611Z,9.719117
2023-03-11T07:59:28.603Z,9.719175
2023-03-11T08:00:28.657Z,9.719170
2023-03-11T08:01:28.584Z,9.719200
2023-03-11T08:02:28.647Z,9.719191
2023-03-11T08:03:28.611Z,9.719189
2023-03-11T08:04:28.575Z,9.719132
2023-03-11T08:05:28.540Z,9.719166
2023-03-11T08:06:29.537Z,9.719242
2023-03-11T08:07:28.541Z,9.719320
2023-03-11T08:08:28.553Z,9.719161
2023-03-11T08:09:28.506Z,9.719143
2023-03-11T08:10:28.503Z,9.719127
2023-03-11T08:11:28.494Z,9.719154
2023-03-11T08:12:28.479Z,9.719124
2023-03-11T08:13:28.484Z,9.719131
2023-03-11T08:14:28.493Z,9.719078
2023-03-11T08:15:28.481Z,9.719214
2023-03-11T08:16:28.447Z,9.719271
2023-03-11T08:17:28.432Z,9.719167
2023-03-11T08:18:28.412Z,9.719110
2023-03-11T08:19:28.421Z,9.719217
2023-03-11T08:20:28.495Z,9.719234
2023-03-11T08:21:28.383Z,9.719261
2023-03-11T08:22:28.385Z,9.719270
2023-03-11T08:23:28.359Z,9.719244
2023-03-11T08:24:28.360Z,9.719170
2023-03-11T08:25:28.392Z,9.719043
2023-03-11T08:26:28.363Z,9.719178
2023-03-11T08:27:28.339Z,9.719279
2023-03-11T08:28:28.317Z,9.719275
2023-03-11T08:29:28.320Z,9.719022
2023-03-11T08:30:28.403Z,9.719181
2023-03-11T08:31:28.370Z,9.719129
2023-03-11T08:32:28.298Z,9.719247
2023-03-11T08:33:28.264Z,9.719146
2023-03-11T08:34:28.252Z,9.719139
2023-03-11T08:35:28.291Z,9.719195
2023-03-11T08:36:28.247Z,9.719117
2023-03-11T08:37:28.249Z,9.719194
2023-03-11T08:38:28.245Z,9.719302
2023-03-11T08:39:28.219Z,9.719348
2023-03-11T08:40:28.215Z,9.719346
2023-03-11T08:41:28.214Z,9.719174
2023-03-11T08:42:28.182Z,9.719274
2023-03-11T08:43:28.187Z,9.719291
2023-03-11T08:44:28.172Z,9.719290
2023-03-11T08:45:28.180Z,9.719197
2023-03-11T08:46:28.264Z,9.719263
2023-03-11T08:47:28.138Z,9.719162
2023-03-11T08:48:28.125Z,9.719022
2023-03-11T08:49:28.111Z,9.719137
2023-03-11T08:50:28.125Z,9.719237
2023-03-11T08:51:28.104Z,9.719221
2023-03-11T08:52:28.087Z,9.719270
2023-03-11T08:53:28.086Z,9.719276
2023-03-11T08:54:28.088Z,9.719233
2023-03-11T08:55:28.073Z,9.719286
2023-03-11T08:56:28.038Z,9.719415
2023-03-11T08:57:28.038Z,9.719403
2023-03-11T08:58:28.040Z,9.719472
2023-03-11T08:59:28.034Z,9.719368
2023-03-11T09:00:28.014Z,9.719265
2023-03-11T09:01:28.020Z,9.719346
2023-03-11T09:02:28.053Z,9.719348
2023-03-11T09:03:27.975Z,9.719322
2023-03-11T09:04:27.976Z,9.719282
2023-03-11T09:05:27.972Z,9.719301
2023-03-11T09:06:27.940Z,9.719272
2023-03-11T09:07:28.962Z,9.719299
2023-03-11T09:08:27.928Z,9.719200
2023-03-11T09:09:27.929Z,9.719249
2023-03-11T09:10:27.910Z,9.719267
2023-03-11T09:11:27.909Z,9.719276
2023-03-11T09:12:27.878Z,9.719244
2023-03-11T09:13:27.869Z,9.719217
2023-03-11T09:14:27.876Z,9.719239
2023-03-11T09:15:27.874Z,9.719235
2023-03-11T09:16:27.942Z,9.719135
2023-03-11T09:17:27.827Z,9.719204
2023-03-11T09:18:27.819Z,9.719122
2023-03-11T09:19:27.845Z,9.719131
2023-03-11T09:20:27.811Z,9.719209
2023-03-11T09:21:27.790Z,9.719238
2023-03-11T09:22:27.781Z,9.719120
2023-03-11T09:23:27.788Z,9.719147
2023-03-11T09:24:27.777Z,9.719023
2023-03-11T09:25:27.780Z,9.719158
2023-03-11T09:26:27.742Z,9.719118
2023-03-11T09:27:27.738Z,9.719152
2023-03-11T09:28:27.749Z,9.719129
2023-03-11T09:29:27.708Z,9.719127
2023-03-11T09:30:27.739Z,9.719172
2023-03-11T09:31:27.769Z,9.719115
2023-03-11T09:32:27.736Z,9.718991
2023-03-11T09:33:27.689Z,9.718889
2023-03-11T09:34:27.659Z,9.718884
2023-03-11T09:35:27.730Z,9.718938
2023-03-11T09:36:27.642Z,9.718969
2023-03-11T09:37:27.665Z,9.718907
2023-03-11T09:38:27.647Z,9.718889
2023-03-11T09:39:27.639Z,9.718974
2023-03-11T09:40:27.611Z,9.718809
2023-03-11T09:41:27.646Z,9.718882
2023-03-11T09:42:27.598Z,9.718841
2023-03-11T09:43:27.572Z,9.718824
2023-03-11T09:44:27.590Z,9.719058
2023-03-11T09:45:27.580Z,9.719154
2023-03-11T09:46:27.607Z,9.719135
2023-03-11T09:47:27.556Z,9.719143
2023-03-11T09:48:27.523Z,9.719164
2023-03-11T09:49:27.538Z,9.719254
2023-03-11T09:50:27.530Z,9.719199
2023-03-11T09:51:27.538Z,9.719246
2023-03-11T09:52:27.521Z,9.719345
2023-03-11T09:53:27.488Z,9.719390
2023-03-11T09:54:27.464Z,9.719353
2023-03-11T09:55:27.470Z,9.719356
2023-03-11T09:56:27.451Z,9.719414
2023-03-11T09:57:27.444Z,9.719333
2023-03-11T09:58:27.436Z,9.719321
2023-03-11T09:59:27.414Z,9.719321
2023-03-11T10:00:27.395Z,9.719206
2023-03-11T10:01:27.389Z,9.719124
2023-03-11T10:02:27.502Z,9.719120
2023-03-11T10:03:27.364Z,9.719203
2023-03-11T10:04:27.374Z,9.719233
2023-03-11T10:05:27.361Z,9.719288
2023-03-11T10:06:27.360Z,9.719284
2023-03-11T10:07:27.355Z,9.719325
2023-03-11T10:08:27.317Z,9.719379
2023-03-11T10:09:27.308Z,9.719258
2023-03-11T10:10:27.302Z,9.719201
2023-03-11T10:11:27.283Z,9.719234
2023-03-11T10:12:27.310Z,9.719329
2023-03-11T10:13:27.280Z,9.719294
2023-03-11T10:14:27.275Z,9.719197
2023-03-11T10:15:27.240Z,9.719202
2023-03-11T10:16:27.267Z,9.719213
2023-03-11T10:17:27.247Z,9.719283
2023-03-11T10:18:27.215Z,9.719284
2023-03-11T10:19:27.222Z,9.719202
2023-03-11T10:20:27.185Z,9.719251
2023-03-11T10:21:27.177Z,9.719283
2023-03-11T10:22:27.172Z,9.719299
2023-03-11T10:23:27.182Z,9.719250
2023-03-11T10:24:27.166Z,9.719192
2023-03-11T10:25:27.186Z,9.719148
2023-03-11T10:26:27.126Z,9.719169
2023-03-11T10:27:27.105Z,9.719178
2023-03-11T10:28:27.124Z,9.719198
2023-03-11T10:29:27.097Z,9.719081
2023-03-11T10:30:27.102Z,9.719093
2023-03-11T10:31:27.128Z,9.719235
2023-03-11T10:32:27.084Z,9.719190
2023-03-11T10:33:27.107Z,9.719235
2023-03-11T10:34:27.050Z,9.719190
2023-03-11T10:35:27.039Z,9.719039
2023-03-11T10:36:27.096Z,9.718973
2023-03-11T10:37:33.191Z,9.719125
2023-03-11T10:38:29.027Z,9.719164
2023-03-11T10:39:27.020Z,9.719020
2023-03-11T10:40:27.001Z,9.719033
2023-03-11T10:41:26.992Z,9.719068
2023-03-11T10:42:27.010Z,9.719117
2023-03-11T10:43:26.959Z,9.719079
2023-03-11T10:44:26.977Z,9.719141
2023-03-11T10:45:26.985Z,9.719184
2023-03-11T10:46:26.930Z,9.719158
2023-03-11T10:47:26.962Z,9.719129
2023-03-11T10:48:26.917Z,9.719170
2023-03-11T10:49:26.898Z,9.719184
2023-03-11T10:50:26.905Z,9.719085
2023-03-11T10:51:26.965Z,9.719069
2023-03-11T10:52:26.884Z,9.719126
2023-03-11T10:53:26.855Z,9.719229
2023-03-11T10:54:27.869Z,9.719187
2023-03-11T10:55:26.840Z,9.719264
2023-03-11T10:56:26.861Z,9.719314
2023-03-11T10:57:26.831Z,9.719364
2023-03-11T10:58:26.836Z,9.719010
2023-03-11T10:59:26.820Z,9.719144
2023-03-11T11:00:26.808Z,9.719072
2023-03-11T11:01:26.901Z,9.719119
2023-03-11T11:02:26.812Z,9.719284
2023-03-11T11:03:26.778Z,9.719390
2023-03-11T11:04:26.799Z,9.719324
2023-03-11T11:05:26.750Z,9.719112
2023-03-11T11:06:26.776Z,9.719089
2023-03-11T11:07:26.762Z,9.718867
2023-03-11T11:08:26.739Z,9.719006
2023-03-11T11:09:27.134Z,9.719048
2023-03-11T11:10:27.716Z,9.719066
2023-03-11T11:11:26.696Z,9.718863
2023-03-11T11:12:26.674Z,9.718835
2023-03-11T11:13:26.679Z,9.718995
2023-03-11T11:14:26.668Z,9.719013
2023-03-11T11:15:26.690Z,9.719007
2023-03-11T11:16:26.669Z,9.719039
2023-03-11T11:17:26.641Z,9.719082
2023-03-11T11:18:26.631Z,9.719073
2023-03-11T11:19:26.614Z,9.719227
2023-03-11T11:20:26.681Z,9.719132
2023-03-11T11:21:26.594Z,9.718889
2023-03-11T11:22:26.628Z,9.719019
2023-03-11T11:23:26.568Z,9.719133
2023-03-11T11:24:26.581Z,9.719209
2023-03-11T11:25:26.589Z,9.719206
2023-03-11T11:26:26.552Z,9.719205
2023-03-11T11:27:26.526Z,9.719269
2023-03-11T11:28:26.531Z,9.719155
2023-03-11T11:29:26.551Z,9.719078
2023-03-11T11:30:26.530Z,9.719078
2023-03-11T11:31:26.504Z,9.719004
2023-03-11T11:32:26.505Z,9.719206
2023-03-11T11:33:26.480Z,9.719184
2023-03-11T11:34:26.463Z,9.719151
2023-03-11T11:35:26.494Z,9.719069
2023-03-11T11:36:26.426Z,9.719198
2023-03-11T11:37:26.421Z,9.719111
2023-03-11T11:38:26.429Z,9.719078
2023-03-11T11:39:26.399Z,9.719124
2023-03-11T11:40:26.412Z,9.719033
2023-03-11T11:41:26.388Z,9.718946
2023-03-11T11:42:26.374Z,9.719037
2023-03-11T11:43:26.383Z,9.719149
2023-03-11T11:44:26.349Z,9.719310